sensor_id;sensor_type;location;lat;lon;timestamp;temperature;humidity
27671;DHT22;15077;49.704;9.908;2022-08-23T00:01:46;22.40;40.90
27671;DHT22;15077;49.704;9.908;2022-08-23T00:04:24;22.40;41.00
27671;DHT22;15077;49.704;9.908;2022-08-23T00:07:02;22.40;41.20
27671;DHT22;15077;49.704;9.908;2022-08-23T00:09:30;22.30;41.10
27671;DHT22;15077;49.704;9.908;2022-08-23T00:12:16;22.30;41.20
27671;DHT22;15077;49.704;9.908;2022-08-23T00:14:47;22.30;41.30
27671;DHT22;15077;49.704;9.908;2022-08-23T00:17:18;22.20;41.30
27671;DHT22;15077;49.704;9.908;2022-08-23T00:19:44;22.20;41.30
27671;DHT22;15077;49.704;9.908;2022-08-23T00:22:11;22.10;41.30
27671;DHT22;15077;49.704;9.908;2022-08-23T00:24:37;22.10;41.40
27671;DHT22;15077;49.704;9.908;2022-08-23T00:27:06;22.10;41.60
27671;DHT22;15077;49.704;9.908;2022-08-23T00:29:40;22.00;41.60
27671;DHT22;15077;49.704;9.908;2022-08-23T00:32:12;22.10;41.40
27671;DHT22;15077;49.704;9.908;2022-08-23T00:34:39;22.00;41.60
27671;DHT22;15077;49.704;9.908;2022-08-23T00:37:07;22.00;41.60
27671;DHT22;15077;49.704;9.908;2022-08-23T00:39:35;21.90;41.70
27671;DHT22;15077;49.704;9.908;2022-08-23T00:42:27;21.90;41.80
27671;DHT22;15077;49.704;9.908;2022-08-23T00:45:21;21.80;42.20
27671;DHT22;15077;49.704;9.908;2022-08-23T00:48:10;21.80;42.00
27671;DHT22;15077;49.704;9.908;2022-08-23T00:51:02;21.70;42.00
27671;DHT22;15077;49.704;9.908;2022-08-23T00:53:38;21.70;42.30
27671;DHT22;15077;49.704;9.908;2022-08-23T00:56:10;21.60;42.20
27671;DHT22;15077;49.704;9.908;2022-08-23T00:58:37;21.60;42.20
27671;DHT22;15077;49.704;9.908;2022-08-23T01:01:05;21.60;42.20
27671;DHT22;15077;49.704;9.908;2022-08-23T01:03:35;21.50;42.40
27671;DHT22;15077;49.704;9.908;2022-08-23T01:06:21;21.50;42.40
27671;DHT22;15077;49.704;9.908;2022-08-23T01:08:56;21.50;42.60
27671;DHT22;15077;49.704;9.908;2022-08-23T01:11:31;21.50;42.70
27671;DHT22;15077;49.704;9.908;2022-08-23T01:14:11;21.40;42.60
27671;DHT22;15077;49.704;9.908;2022-08-23T01:16:46;21.40;42.90
27671;DHT22;15077;49.704;9.908;2022-08-23T01:19:29;21.40;42.90
27671;DHT22;15077;49.704;9.908;2022-08-23T01:22:24;21.30;43.00
27671;DHT22;15077;49.704;9.908;2022-08-23T01:24:53;21.30;43.00
27671;DHT22;15077;49.704;9.908;2022-08-23T01:27:19;21.30;43.00
27671;DHT22;15077;49.704;9.908;2022-08-23T01:29:45;21.20;43.00
27671;DHT22;15077;49.704;9.908;2022-08-23T01:32:12;21.20;43.10
27671;DHT22;15077;49.704;9.908;2022-08-23T01:34:38;21.20;43.20
27671;DHT22;15077;49.704;9.908;2022-08-23T01:37:06;21.10;43.10
27671;DHT22;15077;49.704;9.908;2022-08-23T01:39:34;21.10;43.30
27671;DHT22;15077;49.704;9.908;2022-08-23T01:42:00;21.10;43.30
27671;DHT22;15077;49.704;9.908;2022-08-23T01:44:26;21.10;43.50
27671;DHT22;15077;49.704;9.908;2022-08-23T01:46:52;21.00;43.50
27671;DHT22;15077;49.704;9.908;2022-08-23T01:49:18;21.00;43.50
27671;DHT22;15077;49.704;9.908;2022-08-23T01:51:45;21.00;44.00
27671;DHT22;15077;49.704;9.908;2022-08-23T01:54:11;20.90;43.80
27671;DHT22;15077;49.704;9.908;2022-08-23T01:56:37;20.90;43.80
27671;DHT22;15077;49.704;9.908;2022-08-23T01:59:07;20.80;43.90
27671;DHT22;15077;49.704;9.908;2022-08-23T02:01:33;20.80;44.00
27671;DHT22;15077;49.704;9.908;2022-08-23T02:04:00;20.80;44.00
27671;DHT22;15077;49.704;9.908;2022-08-23T02:06:26;20.80;44.10
27671;DHT22;15077;49.704;9.908;2022-08-23T02:08:52;20.70;44.10
27671;DHT22;15077;49.704;9.908;2022-08-23T02:11:34;20.70;44.20
27671;DHT22;15077;49.704;9.908;2022-08-23T02:14:05;20.70;44.40
27671;DHT22;15077;49.704;9.908;2022-08-23T02:16:40;20.70;44.40
27671;DHT22;15077;49.704;9.908;2022-08-23T02:19:11;20.70;44.40
27671;DHT22;15077;49.704;9.908;2022-08-23T02:21:39;20.60;44.50
27671;DHT22;15077;49.704;9.908;2022-08-23T02:24:16;20.60;44.40
27671;DHT22;15077;49.704;9.908;2022-08-23T02:26:47;20.60;44.80
27671;DHT22;15077;49.704;9.908;2022-08-23T02:29:17;20.50;44.70
27671;DHT22;15077;49.704;9.908;2022-08-23T02:31:45;20.50;44.70
27671;DHT22;15077;49.704;9.908;2022-08-23T02:34:13;20.50;44.70
27671;DHT22;15077;49.704;9.908;2022-08-23T02:36:42;20.50;44.80
27671;DHT22;15077;49.704;9.908;2022-08-23T02:39:09;20.40;44.70
27671;DHT22;15077;49.704;9.908;2022-08-23T02:41:36;20.40;44.90
27671;DHT22;15077;49.704;9.908;2022-08-23T02:44:04;20.40;45.00
27671;DHT22;15077;49.704;9.908;2022-08-23T02:46:30;20.40;44.90
27671;DHT22;15077;49.704;9.908;2022-08-23T02:48:56;20.40;45.10
27671;DHT22;15077;49.704;9.908;2022-08-23T02:51:23;20.40;45.10
27671;DHT22;15077;49.704;9.908;2022-08-23T02:53:49;20.40;45.20
27671;DHT22;15077;49.704;9.908;2022-08-23T02:56:15;20.30;45.20
27671;DHT22;15077;49.704;9.908;2022-08-23T02:58:42;20.30;45.20
27671;DHT22;15077;49.704;9.908;2022-08-23T03:01:22;20.30;45.20
27671;DHT22;15077;49.704;9.908;2022-08-23T03:03:50;20.30;45.60
27671;DHT22;15077;49.704;9.908;2022-08-23T03:06:17;20.20;45.30
27671;DHT22;15077;49.704;9.908;2022-08-23T03:08:44;20.20;45.40
27671;DHT22;15077;49.704;9.908;2022-08-23T03:11:12;20.20;45.50
27671;DHT22;15077;49.704;9.908;2022-08-23T03:13:40;20.20;45.60
27671;DHT22;15077;49.704;9.908;2022-08-23T03:16:08;20.20;45.60
27671;DHT22;15077;49.704;9.908;2022-08-23T03:18:36;20.10;45.70
27671;DHT22;15077;49.704;9.908;2022-08-23T03:21:05;20.10;45.70
27671;DHT22;15077;49.704;9.908;2022-08-23T03:23:33;20.10;45.90
27671;DHT22;15077;49.704;9.908;2022-08-23T03:26:01;20.10;45.90
27671;DHT22;15077;49.704;9.908;2022-08-23T03:28:29;20.10;46.00
27671;DHT22;15077;49.704;9.908;2022-08-23T03:30:56;20.00;45.80
27671;DHT22;15077;49.704;9.908;2022-08-23T03:33:22;20.00;45.90
27671;DHT22;15077;49.704;9.908;2022-08-23T03:35:48;20.00;46.00
27671;DHT22;15077;49.704;9.908;2022-08-23T03:38:14;20.00;46.00
27671;DHT22;15077;49.704;9.908;2022-08-23T03:40:42;19.90;46.00
27671;DHT22;15077;49.704;9.908;2022-08-23T03:43:10;19.90;46.00
27671;DHT22;15077;49.704;9.908;2022-08-23T03:45:36;19.90;46.10
27671;DHT22;15077;49.704;9.908;2022-08-23T03:48:03;19.80;46.10
27671;DHT22;15077;49.704;9.908;2022-08-23T03:50:29;19.80;46.10
27671;DHT22;15077;49.704;9.908;2022-08-23T03:52:54;19.80;46.10
27671;DHT22;15077;49.704;9.908;2022-08-23T03:55:20;19.80;46.20
27671;DHT22;15077;49.704;9.908;2022-08-23T03:57:46;19.80;46.30
27671;DHT22;15077;49.704;9.908;2022-08-23T04:00:14;19.70;46.30
27671;DHT22;15077;49.704;9.908;2022-08-23T04:02:40;19.70;46.40
27671;DHT22;15077;49.704;9.908;2022-08-23T04:05:07;19.60;46.30
27671;DHT22;15077;49.704;9.908;2022-08-23T04:07:37;19.60;46.40
27671;DHT22;15077;49.704;9.908;2022-08-23T04:10:05;19.60;46.50
27671;DHT22;15077;49.704;9.908;2022-08-23T04:12:33;19.60;46.60
27671;DHT22;15077;49.704;9.908;2022-08-23T04:14:59;19.60;46.50
27671;DHT22;15077;49.704;9.908;2022-08-23T04:17:25;19.50;46.60
27671;DHT22;15077;49.704;9.908;2022-08-23T04:19:52;19.50;46.60
27671;DHT22;15077;49.704;9.908;2022-08-23T04:22:19;19.50;46.70
27671;DHT22;15077;49.704;9.908;2022-08-23T04:24:46;19.40;47.40
27671;DHT22;15077;49.704;9.908;2022-08-23T04:27:12;19.40;46.80
27671;DHT22;15077;49.704;9.908;2022-08-23T04:29:39;19.40;46.90
27671;DHT22;15077;49.704;9.908;2022-08-23T04:32:07;19.40;46.90
27671;DHT22;15077;49.704;9.908;2022-08-23T04:34:35;19.40;47.10
27671;DHT22;15077;49.704;9.908;2022-08-23T04:37:05;19.30;46.90
27671;DHT22;15077;49.704;9.908;2022-08-23T04:39:31;19.30;47.00
27671;DHT22;15077;49.704;9.908;2022-08-23T04:42:17;19.30;47.00
27671;DHT22;15077;49.704;9.908;2022-08-23T04:44:43;19.30;47.10
27671;DHT22;15077;49.704;9.908;2022-08-23T04:47:09;19.30;47.20
27671;DHT22;15077;49.704;9.908;2022-08-23T04:49:37;19.30;47.30
27671;DHT22;15077;49.704;9.908;2022-08-23T04:52:03;19.30;47.00
27671;DHT22;15077;49.704;9.908;2022-08-23T04:54:29;19.20;47.40
27671;DHT22;15077;49.704;9.908;2022-08-23T04:56:55;19.20;47.50
27671;DHT22;15077;49.704;9.908;2022-08-23T04:59:21;19.20;47.50
27671;DHT22;15077;49.704;9.908;2022-08-23T05:01:49;19.10;47.50
27671;DHT22;15077;49.704;9.908;2022-08-23T05:04:15;19.20;47.80
27671;DHT22;15077;49.704;9.908;2022-08-23T05:06:42;19.10;47.80
27671;DHT22;15077;49.704;9.908;2022-08-23T05:09:08;19.10;47.80
27671;DHT22;15077;49.704;9.908;2022-08-23T05:11:34;19.10;47.80
27671;DHT22;15077;49.704;9.908;2022-08-23T05:14:00;19.10;48.00
27671;DHT22;15077;49.704;9.908;2022-08-23T05:16:26;19.10;48.00
27671;DHT22;15077;49.704;9.908;2022-08-23T05:18:52;19.10;48.10
27671;DHT22;15077;49.704;9.908;2022-08-23T05:21:21;19.10;48.20
27671;DHT22;15077;49.704;9.908;2022-08-23T05:23:48;19.10;48.40
27671;DHT22;15077;49.704;9.908;2022-08-23T05:26:14;19.20;48.30
27671;DHT22;15077;49.704;9.908;2022-08-23T05:28:42;19.20;48.40
27671;DHT22;15077;49.704;9.908;2022-08-23T05:31:14;19.20;48.60
27671;DHT22;15077;49.704;9.908;2022-08-23T05:33:43;19.20;48.80
27671;DHT22;15077;49.704;9.908;2022-08-23T05:36:11;19.30;48.70
27671;DHT22;15077;49.704;9.908;2022-08-23T05:38:39;19.30;48.60
27671;DHT22;15077;49.704;9.908;2022-08-23T05:41:07;19.30;48.70
27671;DHT22;15077;49.704;9.908;2022-08-23T05:43:33;19.30;48.70
27671;DHT22;15077;49.704;9.908;2022-08-23T05:46:07;19.30;49.10
27671;DHT22;15077;49.704;9.908;2022-08-23T05:48:36;19.40;49.60
27671;DHT22;15077;49.704;9.908;2022-08-23T05:51:11;19.40;50.20
27671;DHT22;15077;49.704;9.908;2022-08-23T05:53:40;19.40;50.60
27671;DHT22;15077;49.704;9.908;2022-08-23T05:58:42;19.40;50.50
27671;DHT22;15077;49.704;9.908;2022-08-23T06:01:08;19.50;50.30
27671;DHT22;15077;49.704;9.908;2022-08-23T06:03:35;19.50;50.60
27671;DHT22;15077;49.704;9.908;2022-08-23T06:06:02;19.50;50.70
27671;DHT22;15077;49.704;9.908;2022-08-23T06:08:28;19.50;50.80
27671;DHT22;15077;49.704;9.908;2022-08-23T06:11:03;19.60;50.90
27671;DHT22;15077;49.704;9.908;2022-08-23T06:13:43;19.60;51.40
27671;DHT22;15077;49.704;9.908;2022-08-23T06:16:13;19.70;51.90
27671;DHT22;15077;49.704;9.908;2022-08-23T06:18:41;19.70;51.50
27671;DHT22;15077;49.704;9.908;2022-08-23T06:21:10;19.70;51.50
27671;DHT22;15077;49.704;9.908;2022-08-23T06:23:37;19.80;51.60
27671;DHT22;15077;49.704;9.908;2022-08-23T06:26:21;19.90;51.80
27671;DHT22;15077;49.704;9.908;2022-08-23T06:28:52;19.90;51.90
27671;DHT22;15077;49.704;9.908;2022-08-23T06:31:21;19.90;52.00
27671;DHT22;15077;49.704;9.908;2022-08-23T06:34:11;20.00;52.50
27671;DHT22;15077;49.704;9.908;2022-08-23T06:37:00;20.10;52.90
27671;DHT22;15077;49.704;9.908;2022-08-23T06:39:34;20.10;53.00
27671;DHT22;15077;49.704;9.908;2022-08-23T06:42:03;20.20;53.10
27671;DHT22;15077;49.704;9.908;2022-08-23T06:44:33;20.30;53.30
27671;DHT22;15077;49.704;9.908;2022-08-23T06:47:00;20.30;52.90
27671;DHT22;15077;49.704;9.908;2022-08-23T06:49:26;20.40;53.00
27671;DHT22;15077;49.704;9.908;2022-08-23T06:51:55;20.40;53.30
27671;DHT22;15077;49.704;9.908;2022-08-23T06:54:27;20.50;53.50
27671;DHT22;15077;49.704;9.908;2022-08-23T06:56:56;20.60;53.20
27671;DHT22;15077;49.704;9.908;2022-08-23T06:59:23;20.70;53.40
27671;DHT22;15077;49.704;9.908;2022-08-23T07:01:56;20.70;53.50
27671;DHT22;15077;49.704;9.908;2022-08-23T07:04:35;20.80;53.60
27671;DHT22;15077;49.704;9.908;2022-08-23T07:07:04;20.90;53.40
27671;DHT22;15077;49.704;9.908;2022-08-23T07:09:31;21.00;53.40
27671;DHT22;15077;49.704;9.908;2022-08-23T07:11:58;21.00;53.60
27671;DHT22;15077;49.704;9.908;2022-08-23T07:14:25;21.10;53.80
27671;DHT22;15077;49.704;9.908;2022-08-23T07:16:55;21.20;53.80
27671;DHT22;15077;49.704;9.908;2022-08-23T07:19:24;21.30;53.60
27671;DHT22;15077;49.704;9.908;2022-08-23T07:21:52;21.40;53.50
27671;DHT22;15077;49.704;9.908;2022-08-23T07:24:19;21.40;53.70
27671;DHT22;15077;49.704;9.908;2022-08-23T07:26:47;21.60;53.50
27671;DHT22;15077;49.704;9.908;2022-08-23T07:29:15;21.60;53.40
27671;DHT22;15077;49.704;9.908;2022-08-23T07:31:44;21.80;53.20
27671;DHT22;15077;49.704;9.908;2022-08-23T07:34:13;21.80;53.20
27671;DHT22;15077;49.704;9.908;2022-08-23T07:36:41;21.90;53.00
27671;DHT22;15077;49.704;9.908;2022-08-23T07:39:09;22.00;53.10
27671;DHT22;15077;49.704;9.908;2022-08-23T07:41:35;22.10;53.30
27671;DHT22;15077;49.704;9.908;2022-08-23T07:44:05;22.20;53.00
27671;DHT22;15077;49.704;9.908;2022-08-23T07:46:33;22.30;52.90
27671;DHT22;15077;49.704;9.908;2022-08-23T07:49:01;22.40;52.80
27671;DHT22;15077;49.704;9.908;2022-08-23T07:51:30;22.40;52.60
27671;DHT22;15077;49.704;9.908;2022-08-23T07:53:57;22.50;52.50
27671;DHT22;15077;49.704;9.908;2022-08-23T07:56:25;22.70;52.60
27671;DHT22;15077;49.704;9.908;2022-08-23T07:58:51;22.70;52.20
27671;DHT22;15077;49.704;9.908;2022-08-23T08:01:23;22.90;52.10
27671;DHT22;15077;49.704;9.908;2022-08-23T08:03:52;22.90;51.90
27671;DHT22;15077;49.704;9.908;2022-08-23T08:06:23;23.00;51.70
27671;DHT22;15077;49.704;9.908;2022-08-23T08:08:49;23.10;51.50
27671;DHT22;15077;49.704;9.908;2022-08-23T08:11:18;23.20;51.50
27671;DHT22;15077;49.704;9.908;2022-08-23T08:13:47;23.30;51.30
27671;DHT22;15077;49.704;9.908;2022-08-23T08:16:26;23.40;51.30
27671;DHT22;15077;49.704;9.908;2022-08-23T08:19:02;23.50;50.70
27671;DHT22;15077;49.704;9.908;2022-08-23T08:21:31;23.50;50.30
27671;DHT22;15077;49.704;9.908;2022-08-23T08:23:57;23.60;50.50
27671;DHT22;15077;49.704;9.908;2022-08-23T08:26:24;23.70;50.30
27671;DHT22;15077;49.704;9.908;2022-08-23T08:28:50;23.80;50.00
27671;DHT22;15077;49.704;9.908;2022-08-23T08:31:16;23.90;49.90
27671;DHT22;15077;49.704;9.908;2022-08-23T08:33:42;24.00;49.80
27671;DHT22;15077;49.704;9.908;2022-08-23T08:36:36;24.10;49.90
27671;DHT22;15077;49.704;9.908;2022-08-23T08:39:08;24.20;49.60
27671;DHT22;15077;49.704;9.908;2022-08-23T08:45:24;24.40;49.30
27671;DHT22;15077;49.704;9.908;2022-08-23T08:48:05;24.50;49.00
27671;DHT22;15077;49.704;9.908;2022-08-23T08:50:58;24.70;48.90
27671;DHT22;15077;49.704;9.908;2022-08-23T08:53:45;24.70;48.60
27671;DHT22;15077;49.704;9.908;2022-08-23T08:56:29;24.90;48.50
27671;DHT22;15077;49.704;9.908;2022-08-23T08:59:06;25.00;48.30
27671;DHT22;15077;49.704;9.908;2022-08-23T09:01:37;25.10;48.40
27671;DHT22;15077;49.704;9.908;2022-08-23T09:04:04;25.20;48.20
27671;DHT22;15077;49.704;9.908;2022-08-23T09:15:49;25.60;47.70
27671;DHT22;15077;49.704;9.908;2022-08-23T09:18:22;25.80;47.40
27671;DHT22;15077;49.704;9.908;2022-08-23T09:20:51;25.90;47.10
27671;DHT22;15077;49.704;9.908;2022-08-23T09:23:31;26.00;46.70
27671;DHT22;15077;49.704;9.908;2022-08-23T09:26:04;26.10;46.50
27671;DHT22;15077;49.704;9.908;2022-08-23T09:28:44;26.30;45.90
27671;DHT22;15077;49.704;9.908;2022-08-23T09:31:10;26.40;45.60
27671;DHT22;15077;49.704;9.908;2022-08-23T09:33:42;26.50;45.80
27671;DHT22;15077;49.704;9.908;2022-08-23T09:36:25;26.60;45.80
27671;DHT22;15077;49.704;9.908;2022-08-23T09:38:58;26.80;45.60
27671;DHT22;15077;49.704;9.908;2022-08-23T09:41:39;26.90;45.30
27671;DHT22;15077;49.704;9.908;2022-08-23T09:44:12;27.00;44.70
27671;DHT22;15077;49.704;9.908;2022-08-23T09:47:08;27.20;44.90
27671;DHT22;15077;49.704;9.908;2022-08-23T09:49:34;27.40;44.60
27671;DHT22;15077;49.704;9.908;2022-08-23T09:52:20;27.50;44.40
27671;DHT22;15077;49.704;9.908;2022-08-23T09:55:01;27.70;43.80
27671;DHT22;15077;49.704;9.908;2022-08-23T09:57:32;27.80;43.40
27671;DHT22;15077;49.704;9.908;2022-08-23T10:00:17;27.90;43.70
27671;DHT22;15077;49.704;9.908;2022-08-23T10:02:46;28.00;43.50
27671;DHT22;15077;49.704;9.908;2022-08-23T10:07:55;28.30;41.60
27671;DHT22;15077;49.704;9.908;2022-08-23T10:10:30;28.40;41.70
27671;DHT22;15077;49.704;9.908;2022-08-23T10:13:03;28.50;41.50
27671;DHT22;15077;49.704;9.908;2022-08-23T10:27:55;29.20;41.80
27671;DHT22;15077;49.704;9.908;2022-08-23T10:30:56;29.30;40.50
27671;DHT22;15077;49.704;9.908;2022-08-23T10:33:44;29.50;40.50
27671;DHT22;15077;49.704;9.908;2022-08-23T10:36:30;29.60;40.50
27671;DHT22;15077;49.704;9.908;2022-08-23T10:39:10;29.70;40.30
27671;DHT22;15077;49.704;9.908;2022-08-23T10:42:15;29.80;40.30
27671;DHT22;15077;49.704;9.908;2022-08-23T10:47:49;30.10;39.50
27671;DHT22;15077;49.704;9.908;2022-08-23T10:50:44;30.20;39.40
27671;DHT22;15077;49.704;9.908;2022-08-23T10:53:18;30.40;40.30
27671;DHT22;15077;49.704;9.908;2022-08-23T10:58:30;30.60;39.90
27671;DHT22;15077;49.704;9.908;2022-08-23T11:01:24;30.80;37.50
27671;DHT22;15077;49.704;9.908;2022-08-23T11:04:19;30.90;37.10
27671;DHT22;15077;49.704;9.908;2022-08-23T11:06:55;30.90;37.20
27671;DHT22;15077;49.704;9.908;2022-08-23T11:23:36;31.60;37.40
27671;DHT22;15077;49.704;9.908;2022-08-23T11:31:33;31.90;35.60
27671;DHT22;15077;49.704;9.908;2022-08-23T11:34:08;31.90;35.70
27671;DHT22;15077;49.704;9.908;2022-08-23T11:44:56;32.20;35.00
27671;DHT22;15077;49.704;9.908;2022-08-23T11:47:28;32.20;35.60
27671;DHT22;15077;49.704;9.908;2022-08-23T11:50:36;32.30;35.30
27671;DHT22;15077;49.704;9.908;2022-08-23T11:56:40;32.50;35.50
27671;DHT22;15077;49.704;9.908;2022-08-23T12:05:40;32.80;35.10
27671;DHT22;15077;49.704;9.908;2022-08-23T12:08:30;32.90;34.30
27671;DHT22;15077;49.704;9.908;2022-08-23T12:11:09;32.90;34.40
27671;DHT22;15077;49.704;9.908;2022-08-23T12:14:00;33.00;35.10
27671;DHT22;15077;49.704;9.908;2022-08-23T12:16:46;33.10;34.10
27671;DHT22;15077;49.704;9.908;2022-08-23T12:19:19;33.10;33.30
27671;DHT22;15077;49.704;9.908;2022-08-23T12:21:55;33.10;33.40
27671;DHT22;15077;49.704;9.908;2022-08-23T12:24:31;33.10;33.50
27671;DHT22;15077;49.704;9.908;2022-08-23T12:44:43;33.40;32.70
27671;DHT22;15077;49.704;9.908;2022-08-23T12:47:15;33.40;32.30
27671;DHT22;15077;49.704;9.908;2022-08-23T12:52:38;33.50;32.80
27671;DHT22;15077;49.704;9.908;2022-08-23T12:55:16;33.50;32.50
27671;DHT22;15077;49.704;9.908;2022-08-23T12:57:50;33.60;32.90
27671;DHT22;15077;49.704;9.908;2022-08-23T13:03:13;33.70;32.40
27671;DHT22;15077;49.704;9.908;2022-08-23T13:05:55;33.80;32.60
27671;DHT22;15077;49.704;9.908;2022-08-23T13:08:52;33.90;32.00
27671;DHT22;15077;49.704;9.908;2022-08-23T13:11:28;33.90;31.60
27671;DHT22;15077;49.704;9.908;2022-08-23T13:13:57;33.90;31.10
27671;DHT22;15077;49.704;9.908;2022-08-23T13:16:40;33.90;30.30
27671;DHT22;15077;49.704;9.908;2022-08-23T13:24:48;34.00;31.20
27671;DHT22;15077;49.704;9.908;2022-08-23T13:27:36;34.00;30.60
27671;DHT22;15077;49.704;9.908;2022-08-23T13:35:40;34.10;31.30
27671;DHT22;15077;49.704;9.908;2022-08-23T13:38:19;34.00;30.90
27671;DHT22;15077;49.704;9.908;2022-08-23T13:43:49;34.20;30.90
27671;DHT22;15077;49.704;9.908;2022-08-23T13:46:22;34.20;30.80
27671;DHT22;15077;49.704;9.908;2022-08-23T13:49:19;34.30;29.90
27671;DHT22;15077;49.704;9.908;2022-08-23T13:54:23;34.30;30.40
27671;DHT22;15077;49.704;9.908;2022-08-23T13:57:14;34.30;31.10
27671;DHT22;15077;49.704;9.908;2022-08-23T13:59:52;34.30;30.50
27671;DHT22;15077;49.704;9.908;2022-08-23T14:02:21;34.30;29.90
27671;DHT22;15077;49.704;9.908;2022-08-23T14:04:48;34.30;29.90
27671;DHT22;15077;49.704;9.908;2022-08-23T14:07:14;34.30;30.00
27671;DHT22;15077;49.704;9.908;2022-08-23T14:09:41;34.20;29.90
27671;DHT22;15077;49.704;9.908;2022-08-23T14:12:13;34.20;30.10
27671;DHT22;15077;49.704;9.908;2022-08-23T14:14:42;34.20;29.80
27671;DHT22;15077;49.704;9.908;2022-08-23T14:17:09;34.10;30.00
27671;DHT22;15077;49.704;9.908;2022-08-23T14:19:36;34.10;30.20
27671;DHT22;15077;49.704;9.908;2022-08-23T14:22:02;34.10;30.40
27671;DHT22;15077;49.704;9.908;2022-08-23T14:24:29;34.10;30.50
27671;DHT22;15077;49.704;9.908;2022-08-23T14:26:55;34.10;30.40
27671;DHT22;15077;49.704;9.908;2022-08-23T14:29:22;34.20;30.30
27671;DHT22;15077;49.704;9.908;2022-08-23T14:31:51;34.20;30.30
27671;DHT22;15077;49.704;9.908;2022-08-23T14:34:17;34.20;30.10
27671;DHT22;15077;49.704;9.908;2022-08-23T14:36:43;34.30;30.00
27671;DHT22;15077;49.704;9.908;2022-08-23T14:39:09;34.30;30.00
27671;DHT22;15077;49.704;9.908;2022-08-23T14:41:35;34.30;30.00
27671;DHT22;15077;49.704;9.908;2022-08-23T14:44:01;34.30;29.60
27671;DHT22;15077;49.704;9.908;2022-08-23T14:46:28;34.30;29.40
27671;DHT22;15077;49.704;9.908;2022-08-23T14:48:54;34.30;29.70
27671;DHT22;15077;49.704;9.908;2022-08-23T14:51:33;34.30;29.80
27671;DHT22;15077;49.704;9.908;2022-08-23T14:54:05;34.30;29.70
27671;DHT22;15077;49.704;9.908;2022-08-23T14:56:32;34.30;29.40
27671;DHT22;15077;49.704;9.908;2022-08-23T14:58:59;34.30;29.40
27671;DHT22;15077;49.704;9.908;2022-08-23T15:01:25;34.30;29.50
27671;DHT22;15077;49.704;9.908;2022-08-23T15:03:51;34.30;29.70
27671;DHT22;15077;49.704;9.908;2022-08-23T15:06:18;34.30;29.60
27671;DHT22;15077;49.704;9.908;2022-08-23T15:08:46;34.30;29.50
27671;DHT22;15077;49.704;9.908;2022-08-23T15:11:13;34.30;29.70
27671;DHT22;15077;49.704;9.908;2022-08-23T15:13:43;34.30;29.60
27671;DHT22;15077;49.704;9.908;2022-08-23T15:16:11;34.40;29.70
27671;DHT22;15077;49.704;9.908;2022-08-23T15:18:44;34.40;29.70
27671;DHT22;15077;49.704;9.908;2022-08-23T15:21:12;34.50;29.80
27671;DHT22;15077;49.704;9.908;2022-08-23T15:23:40;34.50;29.50
27671;DHT22;15077;49.704;9.908;2022-08-23T15:26:07;34.60;29.40
27671;DHT22;15077;49.704;9.908;2022-08-23T15:28:33;34.60;29.30
27671;DHT22;15077;49.704;9.908;2022-08-23T15:31:00;34.60;29.30
27671;DHT22;15077;49.704;9.908;2022-08-23T15:33:27;34.60;29.60
27671;DHT22;15077;49.704;9.908;2022-08-23T15:35:55;34.60;29.70
27671;DHT22;15077;49.704;9.908;2022-08-23T15:38:23;34.70;29.80
27671;DHT22;15077;49.704;9.908;2022-08-23T15:40:53;34.70;29.80
27671;DHT22;15077;49.704;9.908;2022-08-23T15:43:21;34.80;29.70
27671;DHT22;15077;49.704;9.908;2022-08-23T15:45:48;34.90;29.80
27671;DHT22;15077;49.704;9.908;2022-08-23T15:48:24;34.90;29.90
27671;DHT22;15077;49.704;9.908;2022-08-23T15:50:54;35.00;29.90
27671;DHT22;15077;49.704;9.908;2022-08-23T15:53:22;35.00;29.70
27671;DHT22;15077;49.704;9.908;2022-08-23T15:55:49;35.10;29.80
27671;DHT22;15077;49.704;9.908;2022-08-23T15:58:22;35.20;29.70
27671;DHT22;15077;49.704;9.908;2022-08-23T16:00:51;35.20;29.50
27671;DHT22;15077;49.704;9.908;2022-08-23T16:03:19;35.20;29.40
27671;DHT22;15077;49.704;9.908;2022-08-23T16:05:48;35.20;29.30
27671;DHT22;15077;49.704;9.908;2022-08-23T16:08:33;35.10;29.00
27671;DHT22;15077;49.704;9.908;2022-08-23T16:11:04;35.10;29.10
27671;DHT22;15077;49.704;9.908;2022-08-23T16:13:40;35.00;28.80
27671;DHT22;15077;49.704;9.908;2022-08-23T16:16:29;34.90;28.80
27671;DHT22;15077;49.704;9.908;2022-08-23T16:18:57;34.90;28.90
27671;DHT22;15077;49.704;9.908;2022-08-23T16:21:27;34.80;29.00
27671;DHT22;15077;49.704;9.908;2022-08-23T16:23:55;34.60;29.00
27671;DHT22;15077;49.704;9.908;2022-08-23T16:26:24;34.60;29.10
27671;DHT22;15077;49.704;9.908;2022-08-23T16:28:55;34.60;29.30
27671;DHT22;15077;49.704;9.908;2022-08-23T16:31:21;34.50;29.10
27671;DHT22;15077;49.704;9.908;2022-08-23T16:33:54;34.50;29.00
27671;DHT22;15077;49.704;9.908;2022-08-23T16:36:24;34.50;29.00
27671;DHT22;15077;49.704;9.908;2022-08-23T16:38:51;34.50;29.00
27671;DHT22;15077;49.704;9.908;2022-08-23T16:41:19;34.40;29.00
27671;DHT22;15077;49.704;9.908;2022-08-23T16:43:47;34.30;28.70
27671;DHT22;15077;49.704;9.908;2022-08-23T16:46:14;34.30;28.80
27671;DHT22;15077;49.704;9.908;2022-08-23T16:48:41;34.20;28.80
27671;DHT22;15077;49.704;9.908;2022-08-23T16:51:09;34.10;28.90
27671;DHT22;15077;49.704;9.908;2022-08-23T16:53:35;34.10;28.90
27671;DHT22;15077;49.704;9.908;2022-08-23T16:56:03;34.10;29.00
27671;DHT22;15077;49.704;9.908;2022-08-23T16:58:30;34.00;29.00
27671;DHT22;15077;49.704;9.908;2022-08-23T17:00:56;34.00;29.10
27671;DHT22;15077;49.704;9.908;2022-08-23T17:03:22;34.00;29.20
27671;DHT22;15077;49.704;9.908;2022-08-23T17:05:48;34.00;29.20
27671;DHT22;15077;49.704;9.908;2022-08-23T17:08:14;33.90;29.10
27671;DHT22;15077;49.704;9.908;2022-08-23T17:10:41;33.90;29.20
27671;DHT22;15077;49.704;9.908;2022-08-23T17:13:08;33.90;29.10
27671;DHT22;15077;49.704;9.908;2022-08-23T17:15:36;33.90;29.10
27671;DHT22;15077;49.704;9.908;2022-08-23T17:18:03;33.90;29.00
27671;DHT22;15077;49.704;9.908;2022-08-23T17:20:33;33.90;29.10
27671;DHT22;15077;49.704;9.908;2022-08-23T17:23:02;33.90;29.20
27671;DHT22;15077;49.704;9.908;2022-08-23T17:25:28;33.80;29.20
27671;DHT22;15077;49.704;9.908;2022-08-23T17:27:55;33.80;29.40
27671;DHT22;15077;49.704;9.908;2022-08-23T17:30:23;33.70;29.30
27671;DHT22;15077;49.704;9.908;2022-08-23T17:32:50;33.70;29.30
27671;DHT22;15077;49.704;9.908;2022-08-23T17:35:20;33.60;29.20
27671;DHT22;15077;49.704;9.908;2022-08-23T17:37:49;33.60;29.20
27671;DHT22;15077;49.704;9.908;2022-08-23T17:40:19;33.50;29.30
27671;DHT22;15077;49.704;9.908;2022-08-23T17:42:48;33.40;29.40
27671;DHT22;15077;49.704;9.908;2022-08-23T17:45:14;33.40;29.50
27671;DHT22;15077;49.704;9.908;2022-08-23T17:47:40;33.30;29.50
27671;DHT22;15077;49.704;9.908;2022-08-23T17:50:08;33.20;29.50